createdAt,value
2019-01-15T00:00:49.986Z,91.20
2019-01-15T00:03:19.256Z,91.00
2019-01-15T00:05:48.274Z,90.90
2019-01-15T00:08:17.447Z,90.80
2019-01-15T00:10:46.331Z,90.40
2019-01-15T00:13:15.223Z,89.90
2019-01-15T00:15:44.130Z,89.70
2019-01-15T00:18:13.126Z,90.00
2019-01-15T00:20:42.126Z,90.10
2019-01-15T00:23:11.155Z,90.10
2019-01-15T00:25:40.128Z,90.10
2019-01-15T00:28:09.257Z,90.00
2019-01-15T00:30:38.297Z,90.00
2019-01-15T00:33:07.737Z,90.00
2019-01-15T00:35:36.842Z,90.00
2019-01-15T00:38:07.832Z,90.00
2019-01-15T00:40:36.650Z,89.70
2019-01-15T00:43:05.575Z,89.50
2019-01-15T00:45:34.478Z,89.30
2019-01-15T00:48:04.843Z,89.50
2019-01-15T00:50:34.165Z,89.50
2019-01-15T00:53:03.190Z,89.30
2019-01-15T00:55:32.546Z,89.00
2019-01-15T00:58:01.845Z,88.90
2019-01-15T01:00:31.047Z,89.20
2019-01-15T01:03:00.125Z,89.50
2019-01-15T01:05:29.171Z,89.60
2019-01-15T01:07:58.378Z,89.60
2019-01-15T01:10:27.398Z,90.10
2019-01-15T01:12:56.512Z,89.50
2019-01-15T01:15:25.466Z,89.70
2019-01-15T01:17:54.506Z,90.20
2019-01-15T01:20:23.705Z,90.80
2019-01-15T01:22:52.667Z,91.30
2019-01-15T01:25:21.618Z,91.50
2019-01-15T01:27:50.983Z,91.50
2019-01-15T01:30:21.627Z,91.20
2019-01-15T01:32:50.689Z,91.00
2019-01-15T01:35:20.147Z,90.90
2019-01-15T01:37:49.435Z,90.90
2019-01-15T01:40:19.723Z,90.70
2019-01-15T01:42:49.052Z,90.70
2019-01-15T01:45:18.662Z,90.60
2019-01-15T01:47:47.879Z,90.70
2019-01-15T01:50:16.763Z,90.80
2019-01-15T01:52:45.874Z,90.80
2019-01-15T01:55:15.774Z,90.90
2019-01-15T01:57:44.693Z,91.10
2019-01-15T02:00:20.838Z,91.30
2019-01-15T02:02:49.704Z,91.40
2019-01-15T02:05:18.698Z,91.60
2019-01-15T02:07:48.019Z,91.50
2019-01-15T02:10:20.838Z,91.50
2019-01-15T02:12:50.240Z,91.40
2019-01-15T02:15:21.680Z,91.50
2019-01-15T02:17:50.764Z,91.60
2019-01-15T02:20:19.818Z,91.60
2019-01-15T02:22:49.026Z,91.90
2019-01-15T02:25:17.999Z,91.90
2019-01-15T02:27:48.957Z,91.80
2019-01-15T02:30:22.942Z,91.80
2019-01-15T02:32:51.770Z,91.50
2019-01-15T02:35:21.286Z,91.60
2019-01-15T02:37:50.404Z,91.30
2019-01-15T02:40:19.586Z,91.30
2019-01-15T02:42:48.597Z,91.40
2019-01-15T02:45:18.927Z,91.40
2019-01-15T02:47:48.010Z,91.40
2019-01-15T02:50:17.800Z,91.10
2019-01-15T02:52:47.021Z,91.10
2019-01-15T02:55:16.266Z,90.60
2019-01-15T02:57:45.308Z,90.40
2019-01-15T03:00:20.085Z,90.40
2019-01-15T03:02:49.051Z,89.90
2019-01-15T03:05:17.901Z,89.80
2019-01-15T03:07:46.877Z,90.00
2019-01-15T03:10:17.399Z,90.00
2019-01-15T03:12:54.837Z,89.90
2019-01-15T03:15:20.548Z,90.10
2019-01-15T03:17:49.324Z,90.10
2019-01-15T03:20:18.645Z,89.90
2019-01-15T03:22:47.792Z,89.90
2019-01-15T03:25:16.961Z,90.10
2019-01-15T03:27:46.388Z,89.60
2019-01-15T03:30:20.711Z,89.70
2019-01-15T03:32:50.182Z,89.70
2019-01-15T03:35:19.089Z,89.20
2019-01-15T03:37:48.257Z,89.30
2019-01-15T03:40:19.564Z,89.30
2019-01-15T03:42:48.527Z,89.40
2019-01-15T03:45:17.817Z,89.50
2019-01-15T03:47:46.916Z,89.70
2019-01-15T03:50:16.022Z,89.90
2019-01-15T03:52:44.868Z,89.90
2019-01-15T03:55:14.502Z,90.00
2019-01-15T03:57:43.789Z,89.50
2019-01-15T04:00:18.543Z,89.50
2019-01-15T04:02:47.806Z,89.20
2019-01-15T04:05:17.808Z,89.50
2019-01-15T04:07:47.224Z,89.20
2019-01-15T04:10:16.039Z,89.00
2019-01-15T04:12:45.093Z,88.80
2019-01-15T04:15:14.626Z,88.70
2019-01-15T04:17:43.543Z,88.60
2019-01-15T04:20:14.148Z,88.80
2019-01-15T04:22:43.052Z,89.00
2019-01-15T04:25:12.587Z,89.40
2019-01-15T04:27:41.487Z,89.70
2019-01-15T04:30:13.502Z,89.80
2019-01-15T04:32:42.221Z,89.80
2019-01-15T04:35:11.630Z,90.10
2019-01-15T04:37:40.636Z,90.40
2019-01-15T04:40:12.621Z,90.30
2019-01-15T04:42:41.458Z,90.30
2019-01-15T04:45:12.270Z,90.50
2019-01-15T04:47:41.198Z,90.40
2019-01-15T04:50:13.415Z,90.40
2019-01-15T04:52:44.276Z,90.40
2019-01-15T04:55:13.346Z,90.40
2019-01-15T04:57:42.444Z,90.40
2019-01-15T05:00:14.367Z,90.50
2019-01-15T05:02:43.809Z,90.60
2019-01-15T05:05:12.797Z,90.70
2019-01-15T05:07:41.784Z,90.70
2019-01-15T05:10:11.997Z,90.70
2019-01-15T05:12:40.830Z,90.80
2019-01-15T05:15:13.121Z,90.80
2019-01-15T05:17:42.401Z,90.70
2019-01-15T05:20:13.097Z,90.70
2019-01-15T05:22:42.090Z,90.70
2019-01-15T05:25:13.796Z,90.10
2019-01-15T05:27:42.807Z,90.20
2019-01-15T05:30:18.197Z,90.60
2019-01-15T05:32:47.178Z,90.70
2019-01-15T05:35:16.171Z,91.00
2019-01-15T05:37:44.945Z,91.30
2019-01-15T05:40:13.876Z,91.40
2019-01-15T05:42:42.976Z,91.80
2019-01-15T05:45:16.203Z,91.90
2019-01-15T05:47:45.485Z,91.90
2019-01-15T05:50:18.095Z,91.70
2019-01-15T05:52:47.135Z,91.70
2019-01-15T05:55:16.237Z,91.60
2019-01-15T05:57:45.228Z,91.70
2019-01-15T06:00:14.525Z,91.70
2019-01-15T06:02:43.799Z,91.80
2019-01-15T06:05:13.224Z,92.10
2019-01-15T06:07:42.225Z,92.20
2019-01-15T06:10:11.807Z,92.30
2019-01-15T06:12:40.778Z,92.40
2019-01-15T06:15:11.010Z,92.80
2019-01-15T06:17:39.995Z,93.10
2019-01-15T06:20:11.580Z,93.10
2019-01-15T06:22:40.415Z,93.10
2019-01-15T06:25:09.755Z,93.20
2019-01-15T06:27:39.324Z,93.20
2019-01-15T06:30:11.214Z,93.00
2019-01-15T06:32:40.154Z,92.90
2019-01-15T06:35:09.256Z,93.10
2019-01-15T06:37:38.080Z,92.80
2019-01-15T06:40:09.939Z,92.90
2019-01-15T06:42:39.079Z,93.00
2019-01-15T06:45:11.928Z,92.80
2019-01-15T06:47:40.826Z,92.90
2019-01-15T06:50:10.530Z,92.90
2019-01-15T06:52:39.694Z,93.10
2019-01-15T06:55:10.550Z,93.30
2019-01-15T06:57:39.329Z,93.90
2019-01-15T07:00:12.731Z,93.70
2019-01-15T07:02:41.825Z,94.10
2019-01-15T07:05:10.795Z,94.20
2019-01-15T07:07:39.842Z,93.80
2019-01-15T07:10:11.578Z,93.40
2019-01-15T07:12:40.585Z,93.30
2019-01-15T07:15:10.029Z,93.30
2019-01-15T07:17:39.132Z,93.50
2019-01-15T07:20:08.946Z,93.50
2019-01-15T07:22:38.239Z,93.90
2019-01-15T07:25:09.108Z,93.80
2019-01-15T07:27:38.178Z,93.90
2019-01-15T07:30:11.489Z,94.10
2019-01-15T07:32:40.328Z,94.20
2019-01-15T07:35:09.270Z,94.50
2019-01-15T07:37:38.649Z,94.50
2019-01-15T07:40:08.571Z,94.60
2019-01-15T07:42:37.731Z,94.60
2019-01-15T07:45:08.736Z,94.60
2019-01-15T07:47:37.463Z,94.50
2019-01-15T07:50:08.660Z,94.30
2019-01-15T07:52:37.592Z,94.30
2019-01-15T07:55:07.093Z,94.50
2019-01-15T07:57:35.929Z,94.30
2019-01-15T08:00:06.666Z,94.20
2019-01-15T08:02:36.092Z,94.10
2019-01-15T08:05:06.238Z,94.10
2019-01-15T08:07:35.145Z,93.90
2019-01-15T08:10:04.981Z,93.80
2019-01-15T08:12:33.964Z,93.60
2019-01-15T08:15:03.081Z,93.20
2019-01-15T08:17:32.259Z,93.10
2019-01-15T08:20:01.573Z,92.90
2019-01-15T08:22:30.768Z,92.90
2019-01-15T08:24:59.839Z,92.70
2019-01-15T08:27:28.779Z,92.80
2019-01-15T08:29:57.904Z,92.50
2019-01-15T08:32:26.829Z,92.50
2019-01-15T08:34:59.240Z,92.50
2019-01-15T08:37:28.234Z,92.50
2019-01-15T08:39:57.777Z,92.50
2019-01-15T08:42:26.578Z,92.90
2019-01-15T08:44:55.995Z,92.90
2019-01-15T08:47:25.236Z,93.00
2019-01-15T08:49:54.278Z,92.60
2019-01-15T08:52:23.351Z,93.00
2019-01-15T08:54:52.395Z,92.70
2019-01-15T08:57:22.186Z,92.10
2019-01-15T08:59:50.932Z,92.20
2019-01-15T09:02:20.058Z,91.90
2019-01-15T09:04:48.936Z,91.20
2019-01-15T09:07:17.939Z,91.10
2019-01-15T09:09:46.883Z,91.10
2019-01-15T09:12:16.143Z,90.90
2019-01-15T09:14:45.447Z,90.90
2019-01-15T09:17:14.445Z,90.80
2019-01-15T09:19:43.570Z,91.00
2019-01-15T09:22:12.455Z,91.00
2019-01-15T09:24:41.494Z,90.10
2019-01-15T09:27:10.586Z,89.70
2019-01-15T09:29:40.052Z,89.40
2019-01-15T09:32:09.084Z,90.00
2019-01-15T09:34:38.300Z,90.20
2019-01-15T09:37:08.710Z,90.10
2019-01-15T09:39:37.766Z,90.30
2019-01-15T09:42:06.754Z,90.40
2019-01-15T09:44:35.814Z,89.60
2019-01-15T09:47:05.025Z,89.40
2019-01-15T09:49:34.542Z,89.80
2019-01-15T09:52:03.559Z,89.80
2019-01-15T09:54:32.439Z,89.90
2019-01-15T09:57:01.326Z,89.40
2019-01-15T09:59:30.432Z,89.40
2019-01-15T10:01:59.667Z,89.20
2019-01-15T10:04:28.705Z,89.80
2019-01-15T10:06:57.778Z,89.80
2019-01-15T10:09:26.922Z,90.70
2019-01-15T10:11:59.020Z,90.80
2019-01-15T10:14:28.190Z,90.60
2019-01-15T10:16:57.037Z,90.40
2019-01-15T10:19:25.950Z,90.30
2019-01-15T10:21:55.067Z,90.10
2019-01-15T10:24:23.923Z,90.80
2019-01-15T10:26:53.898Z,90.60
2019-01-15T10:29:23.978Z,90.30
2019-01-15T10:32:36.063Z,89.80
2019-01-15T10:35:53.650Z,89.30
2019-01-15T10:38:23.666Z,88.60
2019-01-15T10:40:54.290Z,88.00
2019-01-15T10:43:23.166Z,87.70
2019-01-15T10:45:52.161Z,87.40
2019-01-15T10:48:21.347Z,86.20
2019-01-15T10:50:50.373Z,85.90
2019-01-15T10:53:19.493Z,85.30
2019-01-15T10:55:48.568Z,85.90
2019-01-15T10:58:17.975Z,85.40
2019-01-15T11:00:47.068Z,85.40
2019-01-15T11:03:15.973Z,85.70
2019-01-15T11:05:44.956Z,86.30
2019-01-15T11:08:14.005Z,86.70
2019-01-15T11:10:43.047Z,86.70
2019-01-15T11:13:12.348Z,87.30
2019-01-15T11:15:43.442Z,87.10
2019-01-15T11:18:11.819Z,87.00
2019-01-15T11:20:40.863Z,87.00
2019-01-15T11:23:09.740Z,87.30
2019-01-15T11:25:38.668Z,86.90
2019-01-15T11:28:07.969Z,87.00
2019-01-15T11:30:37.095Z,87.30
2019-01-15T11:33:06.519Z,87.20
2019-01-15T11:35:35.522Z,87.00
2019-01-15T11:38:04.623Z,87.10
2019-01-15T11:40:33.489Z,86.50
2019-01-15T11:43:02.355Z,85.70
2019-01-15T11:45:31.624Z,85.30
2019-01-15T11:48:00.591Z,84.90
2019-01-15T11:50:29.515Z,84.40
2019-01-15T11:52:58.816Z,84.40
2019-01-15T11:55:27.956Z,84.60
2019-01-15T11:57:56.808Z,84.50
2019-01-15T12:00:49.944Z,84.40
2019-01-15T12:03:32.898Z,84.20
2019-01-15T12:06:13.368Z,83.90
2019-01-15T12:09:10.548Z,83.30
2019-01-15T12:11:57.154Z,84.00
2019-01-15T12:14:45.051Z,83.40
2019-01-15T12:17:45.322Z,84.20
2019-01-15T12:20:33.579Z,83.70
2019-01-15T12:23:24.507Z,82.90
2019-01-15T12:26:02.804Z,83.50
2019-01-15T12:28:53.886Z,83.40
2019-01-15T12:31:35.435Z,83.30
2019-01-15T12:34:25.285Z,82.80
2019-01-15T12:37:28.184Z,83.20
2019-01-15T12:40:19.111Z,82.90
2019-01-15T12:43:22.447Z,82.20
2019-01-15T12:46:12.355Z,82.70
2019-01-15T12:48:58.942Z,83.30
2019-01-15T12:51:51.001Z,83.80
2019-01-15T12:54:30.149Z,83.80
2019-01-15T12:57:19.731Z,83.80
2019-01-15T13:00:06.450Z,83.50
2019-01-15T13:02:53.061Z,83.50
2019-01-15T13:05:56.448Z,83.50
2019-01-15T13:08:48.818Z,84.10
2019-01-15T13:11:30.641Z,84.80
2019-01-15T13:14:08.183Z,84.40
2019-01-15T13:16:45.203Z,85.20
2019-01-15T13:19:48.247Z,84.40
2019-01-15T13:22:34.509Z,84.70
2019-01-15T13:25:34.135Z,84.30
2019-01-15T13:28:12.614Z,84.80
2019-01-15T13:31:00.743Z,84.70
2019-01-15T13:33:57.764Z,84.40
2019-01-15T13:36:34.056Z,83.10
2019-01-15T13:39:36.090Z,83.90
2019-01-15T13:42:21.264Z,83.40
2019-01-15T13:44:59.304Z,83.40
2019-01-15T13:47:47.331Z,83.20
2019-01-15T13:50:34.388Z,84.20
2019-01-15T13:53:20.470Z,83.90
2019-01-15T13:56:26.607Z,84.00
2019-01-15T13:59:04.871Z,84.20
2019-01-15T14:01:43.563Z,83.90
2019-01-15T14:04:43.678Z,84.20
2019-01-15T14:07:30.451Z,84.40
2019-01-15T14:10:24.588Z,84.60
2019-01-15T14:13:18.239Z,84.80
2019-01-15T14:16:08.971Z,84.80
2019-01-15T14:19:02.888Z,84.80
2019-01-15T14:22:00.078Z,84.60
2019-01-15T14:24:50.876Z,84.20
2019-01-15T14:27:47.892Z,83.90
2019-01-15T14:30:36.552Z,83.00
2019-01-15T14:33:27.784Z,83.30
2019-01-15T14:36:14.130Z,82.90
2019-01-15T14:39:01.075Z,83.40
2019-01-15T14:41:55.416Z,83.20
2019-01-15T14:44:43.558Z,83.60
2019-01-15T14:47:31.757Z,82.90
2019-01-15T14:50:21.399Z,83.30
2019-01-15T14:53:24.521Z,83.30
2019-01-15T14:56:11.207Z,83.00
2019-01-15T14:59:14.239Z,83.30
2019-01-15T15:02:06.834Z,83.10
2019-01-15T15:04:52.034Z,82.80
2019-01-15T15:07:38.753Z,83.00
2019-01-15T15:10:42.392Z,82.90
2019-01-15T15:13:29.012Z,82.40
2019-01-15T15:16:15.466Z,82.20
2019-01-15T15:19:09.419Z,82.40
2019-01-15T15:21:48.180Z,82.60
2019-01-15T15:24:41.335Z,82.70
2019-01-15T15:27:24.968Z,82.30
2019-01-15T15:30:22.046Z,82.20
2019-01-15T15:33:12.543Z,82.60
2019-01-15T15:35:56.998Z,82.50
2019-01-15T15:38:39.486Z,82.60
2019-01-15T15:41:26.351Z,82.70
2019-01-15T15:44:14.564Z,82.70
2019-01-15T15:47:00.930Z,82.60
2019-01-15T15:49:45.215Z,82.70
2019-01-15T15:52:32.551Z,83.00
2019-01-15T15:55:19.200Z,83.30
2019-01-15T15:58:10.868Z,83.10
2019-01-15T16:00:56.790Z,83.20
2019-01-15T16:03:36.850Z,83.40
2019-01-15T16:06:24.880Z,83.30
2019-01-15T16:09:11.322Z,83.40
2019-01-15T16:11:58.124Z,83.30
2019-01-15T16:14:44.816Z,83.90
2019-01-15T16:17:31.595Z,84.50
2019-01-15T16:20:34.860Z,85.00
2019-01-15T16:23:18.124Z,85.10
2019-01-15T16:26:06.275Z,85.90
2019-01-15T16:29:09.605Z,86.30
2019-01-15T16:31:47.539Z,86.30
2019-01-15T16:34:28.775Z,86.00
2019-01-15T16:37:19.971Z,86.20
2019-01-15T16:40:06.629Z,86.40
2019-01-15T16:43:09.739Z,86.40
2019-01-15T16:46:02.436Z,86.50
2019-01-15T16:48:41.413Z,86.90
2019-01-15T16:51:28.403Z,86.50
2019-01-15T16:54:14.660Z,86.20
2019-01-15T16:57:02.800Z,85.90
2019-01-15T16:59:43.356Z,86.00
2019-01-15T17:02:31.226Z,86.10
2019-01-15T17:05:12.195Z,86.20
2019-01-15T17:07:54.765Z,86.20
2019-01-15T17:10:31.675Z,86.10
2019-01-15T17:13:18.318Z,86.00
2019-01-15T17:16:05.051Z,85.80
2019-01-15T17:18:42.178Z,86.20
2019-01-15T17:21:21.168Z,86.20
2019-01-15T17:24:05.364Z,86.30
2019-01-15T17:26:44.490Z,86.50
2019-01-15T17:29:44.765Z,86.70
2019-01-15T17:32:30.656Z,86.80
2019-01-15T17:35:17.475Z,87.10
2019-01-15T17:38:14.787Z,87.20
2019-01-15T17:40:54.774Z,87.40
2019-01-15T17:43:42.694Z,87.60
2019-01-15T17:46:30.554Z,87.70
2019-01-15T17:49:27.476Z,87.60
2019-01-15T17:52:28.278Z,87.70
2019-01-15T17:55:15.295Z,87.60
2019-01-15T17:58:03.317Z,87.70
2019-01-15T18:01:09.159Z,87.80
2019-01-15T18:03:53.227Z,87.90
2019-01-15T18:06:37.086Z,88.30
2019-01-15T18:09:33.514Z,88.30
2019-01-15T18:12:39.482Z,88.50
2019-01-15T18:15:31.360Z,88.70
2019-01-15T18:18:28.546Z,88.70
2019-01-15T18:21:11.141Z,88.60
2019-01-15T18:23:50.747Z,88.70
2019-01-15T18:26:36.725Z,88.40
2019-01-15T18:29:16.975Z,88.30
2019-01-15T18:32:04.423Z,88.40
2019-01-15T18:34:43.547Z,88.40
2019-01-15T18:37:34.473Z,88.50
2019-01-15T18:40:29.615Z,88.30
2019-01-15T18:43:12.466Z,88.20
2019-01-15T18:45:47.982Z,88.40
2019-01-15T18:48:41.113Z,88.40
2019-01-15T18:51:23.205Z,88.40
2019-01-15T18:54:04.693Z,88.60
2019-01-15T18:56:57.616Z,88.80
2019-01-15T18:59:46.016Z,89.90
2019-01-15T19:02:25.879Z,90.50
2019-01-15T19:05:12.154Z,91.50
2019-01-15T19:08:04.914Z,92.20
2019-01-15T19:11:00.373Z,92.70
2019-01-15T19:13:48.512Z,92.60
2019-01-15T19:16:39.248Z,92.90
2019-01-15T19:19:33.254Z,92.90
2019-01-15T19:22:18.066Z,92.70
2019-01-15T19:25:06.456Z,92.60
2019-01-15T19:28:06.718Z,92.60
2019-01-15T19:31:03.564Z,92.30
2019-01-15T19:34:03.676Z,92.20
2019-01-15T19:36:51.761Z,92.50
2019-01-15T19:39:49.274Z,92.40
2019-01-15T19:42:35.155Z,92.10
2019-01-15T19:45:21.998Z,92.00
2019-01-15T19:48:08.323Z,92.00
2019-01-15T19:50:54.838Z,91.90
2019-01-15T19:53:38.165Z,91.70
2019-01-15T19:56:24.997Z,91.70
2019-01-15T19:59:19.207Z,91.30
2019-01-15T20:02:07.548Z,91.40
2019-01-15T20:04:46.805Z,91.80
2019-01-15T20:07:50.536Z,92.10
2019-01-15T20:10:35.848Z,92.10
2019-01-15T20:13:24.608Z,92.40
2019-01-15T20:16:09.991Z,92.40
2019-01-15T20:18:58.275Z,92.30
2019-01-15T20:21:40.051Z,92.20
2019-01-15T20:24:31.245Z,92.10
2019-01-15T20:27:22.342Z,92.50
2019-01-15T20:30:09.198Z,92.90
2019-01-15T20:32:55.851Z,92.90
2019-01-15T20:35:42.894Z,93.10
2019-01-15T20:38:43.009Z,92.90
2019-01-15T20:41:29.469Z,92.50
2019-01-15T20:44:16.233Z,92.20
2019-01-15T20:46:56.730Z,91.50
2019-01-15T20:49:57.054Z,90.70
2019-01-15T20:52:54.176Z,90.70
2019-01-15T20:55:51.244Z,90.50
2019-01-15T20:58:33.787Z,90.60
2019-01-15T21:01:21.387Z,90.40
2019-01-15T21:04:18.355Z,90.40
2019-01-15T21:06:58.449Z,90.60
2019-01-15T21:09:44.941Z,90.70
2019-01-15T21:12:48.219Z,90.90
2019-01-15T21:15:42.013Z,90.70
2019-01-15T21:18:32.995Z,90.60
2019-01-15T21:21:21.782Z,90.60
2019-01-15T21:24:08.244Z,90.50
2019-01-15T21:26:55.044Z,90.50
2019-01-15T21:29:30.234Z,90.50
2019-01-15T21:32:20.943Z,90.80
2019-01-15T21:35:07.816Z,90.80
2019-01-15T21:37:44.936Z,90.80
2019-01-15T21:40:30.345Z,90.70
2019-01-15T21:43:16.920Z,90.40
2019-01-15T21:46:08.762Z,90.40
2019-01-15T21:49:05.972Z,90.50
2019-01-15T21:51:51.027Z,90.50
2019-01-15T21:54:30.813Z,90.60
2019-01-15T21:57:19.554Z,90.40
2019-01-15T22:00:02.897Z,90.10
2019-01-15T22:03:00.120Z,90.00
2019-01-15T22:05:35.643Z,90.10
2019-01-15T22:08:23.879Z,90.20
2019-01-15T22:11:10.550Z,90.20
2019-01-15T22:13:57.137Z,90.10
2019-01-15T22:16:44.047Z,90.30
2019-01-15T22:19:37.532Z,90.00
2019-01-15T22:22:27.915Z,90.00
2019-01-15T22:25:16.019Z,90.30
2019-01-15T22:27:58.959Z,90.30
2019-01-15T22:30:45.592Z,90.30
2019-01-15T22:33:32.223Z,90.20
2019-01-15T22:36:10.102Z,90.30
2019-01-15T22:38:56.476Z,90.50
2019-01-15T22:41:41.204Z,90.50
2019-01-15T22:44:27.948Z,90.70
2019-01-15T22:47:14.778Z,90.80
2019-01-15T22:50:08.829Z,91.20
2019-01-15T22:53:05.297Z,91.40
2019-01-15T22:55:51.658Z,91.70
2019-01-15T22:58:45.732Z,91.40
2019-01-15T23:01:32.273Z,91.40
2019-01-15T23:04:14.958Z,91.00
2019-01-15T23:06:51.853Z,90.90
2019-01-15T23:09:39.916Z,91.00
2019-01-15T23:12:33.956Z,91.20
2019-01-15T23:15:14.016Z,92.00
2019-01-15T23:18:05.183Z,93.20
2019-01-15T23:20:54.146Z,93.00
2019-01-15T23:23:40.873Z,93.10
2019-01-15T23:26:41.030Z,93.20
2019-01-15T23:29:32.148Z,93.20
2019-01-15T23:32:19.026Z,93.50
2019-01-15T23:34:57.356Z,93.30
2019-01-15T23:37:43.794Z,93.10
2019-01-15T23:40:43.958Z,93.30
2019-01-15T23:43:35.011Z,93.20
2019-01-15T23:46:21.554Z,93.30
2019-01-15T23:49:03.943Z,93.20
2019-01-15T23:51:45.439Z,93.40
2019-01-15T23:54:33.596Z,93.60
2019-01-15T23:57:27.507Z,93.60
